createdAt,value
2018-11-04T00:00:53.968Z,77.50
2018-11-04T00:01:57.488Z,77.10
2018-11-04T00:03:00.929Z,77.30
2018-11-04T00:04:04.319Z,77.00
2018-11-04T00:05:07.761Z,76.90
2018-11-04T00:06:11.133Z,76.90
2018-11-04T00:07:14.524Z,77.60
2018-11-04T00:08:17.997Z,77.00
2018-11-04T00:09:21.393Z,76.70
2018-11-04T00:10:24.781Z,76.70
2018-11-04T00:11:28.182Z,76.70
2018-11-04T00:12:31.571Z,76.70
2018-11-04T00:13:35.025Z,76.80
2018-11-04T00:14:38.411Z,76.90
2018-11-04T00:15:41.897Z,76.50
2018-11-04T00:16:45.300Z,76.70
2018-11-04T00:17:48.710Z,76.80
2018-11-04T00:18:52.113Z,76.60
2018-11-04T00:19:55.505Z,76.60
2018-11-04T00:20:58.917Z,76.80
2018-11-04T00:22:02.314Z,77.00
2018-11-04T00:23:05.689Z,76.90
2018-11-04T00:24:09.271Z,77.00
2018-11-04T00:25:14.052Z,77.10
2018-11-04T00:26:17.438Z,77.10
2018-11-04T00:27:20.873Z,77.30
2018-11-04T00:28:24.230Z,77.20
2018-11-04T00:29:27.644Z,77.20
2018-11-04T00:30:31.022Z,77.00
2018-11-04T00:31:34.390Z,77.00
2018-11-04T00:32:37.829Z,77.10
2018-11-04T00:33:41.755Z,77.10
2018-11-04T00:34:45.468Z,77.50
2018-11-04T00:35:48.984Z,77.40
2018-11-04T00:36:52.504Z,77.80
2018-11-04T00:37:55.957Z,78.00
2018-11-04T00:38:59.343Z,77.70
2018-11-04T00:40:02.731Z,77.50
2018-11-04T00:41:06.862Z,77.50
2018-11-04T00:42:10.340Z,77.60
2018-11-04T00:43:13.707Z,77.60
2018-11-04T00:44:17.072Z,77.60
2018-11-04T00:45:20.553Z,77.60
2018-11-04T00:46:23.904Z,77.80
2018-11-04T00:47:27.615Z,77.70
2018-11-04T00:48:31.100Z,77.70
2018-11-04T00:49:34.509Z,77.60
2018-11-04T00:50:37.916Z,77.60
2018-11-04T00:51:41.306Z,77.70
2018-11-04T00:52:45.138Z,78.30
2018-11-04T00:53:48.596Z,77.80
2018-11-04T00:54:51.987Z,77.60
2018-11-04T00:55:56.116Z,77.80
2018-11-04T00:56:59.580Z,77.80
2018-11-04T00:58:02.989Z,77.80
2018-11-04T00:59:06.528Z,77.90
2018-11-04T01:00:16.409Z,78.50
2018-11-04T01:01:19.834Z,77.90
2018-11-04T01:02:23.276Z,78.50
2018-11-04T01:03:26.686Z,77.70
2018-11-04T01:04:30.091Z,77.70
2018-11-04T01:05:33.464Z,78.40
2018-11-04T01:06:36.866Z,77.70
2018-11-04T01:07:40.316Z,77.70
2018-11-04T01:08:43.715Z,78.20
2018-11-04T01:09:47.208Z,77.50
2018-11-04T01:10:50.583Z,77.60
2018-11-04T01:11:57.413Z,77.80
2018-11-04T01:13:00.803Z,77.80
2018-11-04T01:14:04.497Z,77.90
2018-11-04T01:15:08.919Z,77.90
2018-11-04T01:16:12.376Z,78.40
2018-11-04T01:17:15.820Z,78.20
2018-11-04T01:18:19.279Z,78.20
2018-11-04T01:19:22.873Z,78.30
2018-11-04T01:20:26.265Z,78.40
2018-11-04T01:21:29.987Z,78.30
2018-11-04T01:22:33.345Z,78.40
2018-11-04T01:23:36.721Z,78.40
2018-11-04T01:24:40.181Z,78.40
2018-11-04T01:25:43.661Z,78.30
2018-11-04T01:26:47.051Z,78.40
2018-11-04T01:27:50.533Z,78.40
2018-11-04T01:28:57.243Z,78.40
2018-11-04T01:30:00.649Z,78.40
2018-11-04T01:31:04.281Z,78.40
2018-11-04T01:32:07.775Z,78.40
2018-11-04T01:33:11.159Z,78.50
2018-11-04T01:34:14.831Z,78.40
2018-11-04T01:35:18.386Z,78.40
2018-11-04T01:36:21.720Z,78.40
2018-11-04T01:37:25.225Z,78.70
2018-11-04T01:38:28.609Z,78.70
2018-11-04T01:39:31.979Z,78.90
2018-11-04T01:40:35.363Z,78.90
2018-11-04T01:41:38.993Z,78.80
2018-11-04T01:42:42.385Z,78.70
2018-11-04T01:43:45.757Z,78.90
2018-11-04T01:44:49.204Z,78.90
2018-11-04T01:45:52.591Z,78.90
2018-11-04T01:46:56.038Z,79.10
2018-11-04T01:47:59.504Z,79.80
2018-11-04T01:49:02.865Z,78.70
2018-11-04T01:50:11.551Z,78.90
2018-11-04T01:51:14.943Z,79.10
2018-11-04T01:52:18.472Z,79.10
2018-11-04T01:53:21.863Z,79.00
2018-11-04T01:54:25.330Z,78.90
2018-11-04T01:55:28.686Z,78.90
2018-11-04T01:56:32.232Z,79.00
2018-11-04T01:57:35.940Z,79.00
2018-11-04T01:58:39.308Z,79.00
2018-11-04T01:59:42.791Z,79.00
2018-11-04T02:00:46.156Z,78.90
2018-11-04T02:01:49.549Z,78.90
2018-11-04T02:02:52.978Z,78.80
2018-11-04T02:03:56.900Z,79.40
2018-11-04T02:05:00.393Z,79.00
2018-11-04T02:06:03.789Z,79.10
2018-11-04T02:07:07.167Z,78.90
2018-11-04T02:08:10.551Z,79.00
2018-11-04T02:09:14.037Z,79.30
2018-11-04T02:10:17.471Z,79.30
2018-11-04T02:11:20.840Z,79.40
2018-11-04T02:12:24.206Z,79.30
2018-11-04T02:13:27.689Z,78.40
2018-11-04T02:14:31.069Z,79.10
2018-11-04T02:15:34.482Z,79.10
2018-11-04T02:16:37.892Z,79.10
2018-11-04T02:17:41.271Z,79.30
2018-11-04T02:18:44.968Z,79.30
2018-11-04T02:19:48.329Z,79.40
2018-11-04T02:20:51.807Z,79.40
2018-11-04T02:21:55.188Z,79.30
2018-11-04T02:22:58.684Z,79.30
2018-11-04T02:24:02.157Z,79.30
2018-11-04T02:25:06.470Z,79.40
2018-11-04T02:26:10.186Z,79.40
2018-11-04T02:27:13.572Z,79.60
2018-11-04T02:28:16.956Z,79.50
2018-11-04T02:29:20.335Z,80.40
2018-11-04T02:30:23.792Z,80.00
2018-11-04T02:31:27.149Z,79.90
2018-11-04T02:32:30.591Z,80.00
2018-11-04T02:33:33.967Z,79.80
2018-11-04T02:34:37.337Z,79.80
2018-11-04T02:35:40.700Z,79.70
2018-11-04T02:36:44.079Z,79.70
2018-11-04T02:37:47.458Z,79.70
2018-11-04T02:38:50.920Z,79.80
2018-11-04T02:39:54.306Z,79.80
2018-11-04T02:40:57.681Z,79.80
2018-11-04T02:42:01.138Z,79.80
2018-11-04T02:43:04.681Z,80.20
2018-11-04T02:44:08.049Z,80.10
2018-11-04T02:45:11.737Z,80.10
2018-11-04T02:46:15.127Z,80.40
2018-11-04T02:47:18.614Z,80.30
2018-11-04T02:48:21.994Z,80.20
2018-11-04T02:49:25.492Z,80.40
2018-11-04T02:50:28.940Z,80.20
2018-11-04T02:51:32.490Z,80.40
2018-11-04T02:52:35.885Z,80.50
2018-11-04T02:53:39.283Z,80.50
2018-11-04T02:54:42.662Z,80.40
2018-11-04T02:55:46.250Z,80.40
2018-11-04T02:56:49.625Z,80.40
2018-11-04T02:57:52.979Z,80.80
2018-11-04T02:58:56.429Z,80.60
2018-11-04T02:59:59.873Z,81.00
2018-11-04T03:01:03.305Z,80.90
2018-11-04T03:02:10.335Z,80.70
2018-11-04T03:03:13.667Z,80.70
2018-11-04T03:04:17.224Z,80.60
2018-11-04T03:05:20.585Z,80.50
2018-11-04T03:06:23.960Z,80.50
2018-11-04T03:07:27.360Z,80.40
2018-11-04T03:08:30.729Z,80.20
2018-11-04T03:09:34.094Z,80.20
2018-11-04T03:10:37.475Z,80.30
2018-11-04T03:11:40.839Z,80.20
2018-11-04T03:12:44.336Z,80.20
2018-11-04T03:13:47.751Z,80.20
2018-11-04T03:14:51.112Z,80.20
2018-11-04T03:15:54.488Z,80.90
2018-11-04T03:16:57.891Z,80.40
2018-11-04T03:18:01.281Z,80.40
2018-11-04T03:19:04.810Z,80.40
2018-11-04T03:20:08.172Z,80.40
2018-11-04T03:21:11.620Z,80.40
2018-11-04T03:22:15.119Z,80.70
2018-11-04T03:23:18.600Z,80.80
2018-11-04T03:24:21.986Z,80.90
2018-11-04T03:25:25.472Z,80.90
2018-11-04T03:26:28.856Z,80.80
2018-11-04T03:27:32.242Z,80.90
2018-11-04T03:28:35.614Z,80.90
2018-11-04T03:29:39.023Z,81.00
2018-11-04T03:30:42.498Z,81.10
2018-11-04T03:31:45.992Z,81.00
2018-11-04T03:32:49.480Z,80.90
2018-11-04T03:33:52.965Z,81.20
2018-11-04T03:34:56.375Z,81.00
2018-11-04T03:35:59.777Z,81.30
2018-11-04T03:37:03.157Z,81.10
2018-11-04T03:38:06.960Z,81.00
2018-11-04T03:39:11.153Z,81.00
2018-11-04T03:40:14.533Z,80.80
2018-11-04T03:41:17.924Z,80.80
2018-11-04T03:42:21.305Z,81.10
2018-11-04T03:43:24.765Z,81.90
2018-11-04T03:44:28.122Z,81.30
2018-11-04T03:45:31.508Z,81.00
2018-11-04T03:46:35.481Z,81.10
2018-11-04T03:47:38.919Z,81.20
2018-11-04T03:48:42.297Z,81.30
2018-11-04T03:49:45.683Z,81.30
2018-11-04T03:50:49.055Z,81.30
2018-11-04T03:51:52.419Z,81.50
2018-11-04T03:53:00.029Z,81.30
2018-11-04T03:54:03.413Z,81.30
2018-11-04T03:55:07.178Z,81.30
2018-11-04T03:56:11.399Z,81.50
2018-11-04T03:57:14.771Z,81.50
2018-11-04T03:58:18.142Z,81.60
2018-11-04T03:59:21.597Z,81.50
2018-11-04T04:00:25.080Z,81.60
2018-11-04T04:01:28.889Z,81.70
2018-11-04T04:02:32.361Z,81.90
2018-11-04T04:03:35.733Z,81.90
2018-11-04T04:04:39.123Z,82.00
2018-11-04T04:05:42.503Z,82.00
2018-11-04T04:06:45.908Z,82.20
2018-11-04T04:07:49.331Z,82.50
2018-11-04T04:08:52.801Z,82.60
2018-11-04T04:09:56.191Z,82.80
2018-11-04T04:10:59.623Z,83.00
2018-11-04T04:12:03.001Z,83.00
2018-11-04T04:13:06.416Z,83.00
2018-11-04T04:14:09.954Z,83.00
2018-11-04T04:15:13.404Z,83.00
2018-11-04T04:16:16.809Z,82.90
2018-11-04T04:17:20.176Z,83.20
2018-11-04T04:18:23.577Z,84.10
2018-11-04T04:19:26.985Z,83.40
2018-11-04T04:20:30.424Z,83.40
2018-11-04T04:21:33.823Z,83.40
2018-11-04T04:22:37.438Z,83.50
2018-11-04T04:23:41.855Z,83.50
2018-11-04T04:24:45.226Z,83.50
2018-11-04T04:25:48.610Z,83.70
2018-11-04T04:26:52.112Z,83.80
2018-11-04T04:27:55.514Z,83.80
2018-11-04T04:28:59.048Z,83.90
2018-11-04T04:30:02.444Z,84.00
2018-11-04T04:31:05.874Z,84.10
2018-11-04T04:32:09.236Z,84.10
2018-11-04T04:33:12.792Z,84.20
2018-11-04T04:34:16.173Z,84.30
2018-11-04T04:35:19.556Z,84.50
2018-11-04T04:36:22.924Z,84.30
2018-11-04T04:37:26.276Z,84.40
2018-11-04T04:38:29.720Z,84.50
2018-11-04T04:39:33.146Z,84.40
2018-11-04T04:40:36.524Z,84.20
2018-11-04T04:41:40.003Z,84.20
2018-11-04T04:42:43.472Z,84.40
2018-11-04T04:43:46.962Z,84.70
2018-11-04T04:44:50.347Z,85.00
2018-11-04T04:45:53.725Z,85.00
2018-11-04T04:46:57.094Z,85.00
2018-11-04T04:48:00.467Z,85.00
2018-11-04T04:49:03.875Z,85.00
2018-11-04T04:50:07.406Z,85.00
2018-11-04T04:51:10.822Z,84.90
2018-11-04T04:52:14.308Z,85.00
2018-11-04T04:53:17.730Z,84.90
2018-11-04T04:54:21.159Z,85.20
2018-11-04T04:55:24.531Z,85.20
2018-11-04T04:56:27.896Z,85.10
2018-11-04T04:57:31.777Z,85.10
2018-11-04T04:58:35.165Z,85.00
2018-11-04T04:59:38.539Z,85.20
2018-11-04T05:00:41.941Z,85.10
2018-11-04T05:01:45.540Z,85.10
2018-11-04T05:02:49.531Z,85.30
2018-11-04T05:03:53.129Z,85.30
2018-11-04T05:04:56.645Z,85.40
2018-11-04T05:06:00.022Z,85.60
2018-11-04T05:07:03.394Z,85.60
2018-11-04T05:08:06.814Z,85.60
2018-11-04T05:09:10.371Z,85.70
2018-11-04T05:10:13.756Z,85.90
2018-11-04T05:11:17.170Z,86.00
2018-11-04T05:12:20.559Z,86.00
2018-11-04T05:13:23.934Z,85.90
2018-11-04T05:14:27.314Z,86.10
2018-11-04T05:15:30.694Z,86.10
2018-11-04T05:16:34.082Z,86.20
2018-11-04T05:17:37.814Z,86.40
2018-11-04T05:18:41.232Z,87.30
2018-11-04T05:19:44.603Z,86.40
2018-11-04T05:20:48.037Z,86.40
2018-11-04T05:21:51.434Z,86.40
2018-11-04T05:22:54.841Z,86.50
2018-11-04T05:23:58.318Z,86.60
2018-11-04T05:25:04.015Z,86.50
2018-11-04T05:26:07.644Z,86.60
2018-11-04T05:27:11.028Z,86.70
2018-11-04T05:28:14.394Z,86.70
2018-11-04T05:29:18.889Z,87.40
2018-11-04T05:30:22.265Z,86.60
2018-11-04T05:31:25.632Z,86.50
2018-11-04T05:32:29.186Z,86.50
2018-11-04T05:33:32.573Z,86.80
2018-11-04T05:34:35.964Z,87.60
2018-11-04T05:35:39.606Z,86.90
2018-11-04T05:36:42.994Z,87.10
2018-11-04T05:37:46.477Z,86.90
2018-11-04T05:38:49.931Z,87.10
2018-11-04T05:39:53.298Z,87.20
2018-11-04T05:40:56.769Z,87.20
2018-11-04T05:42:00.150Z,87.10
2018-11-04T05:43:03.522Z,87.20
2018-11-04T05:44:06.893Z,87.30
2018-11-04T05:45:10.283Z,87.30
2018-11-04T05:46:13.671Z,87.20
2018-11-04T05:47:17.058Z,87.30
2018-11-04T05:48:20.446Z,87.20
2018-11-04T05:49:23.839Z,87.30
2018-11-04T05:50:27.352Z,87.30
2018-11-04T05:51:31.049Z,87.40
2018-11-04T05:52:34.632Z,87.50
2018-11-04T05:53:39.959Z,87.40
2018-11-04T05:54:43.424Z,87.50
2018-11-04T05:55:46.839Z,87.60
2018-11-04T05:56:50.219Z,87.60
2018-11-04T05:57:53.684Z,87.80
2018-11-04T05:58:58.162Z,87.80
2018-11-04T06:00:01.564Z,88.00
2018-11-04T06:01:05.478Z,87.90
2018-11-04T06:02:09.052Z,88.20
2018-11-04T06:03:12.455Z,88.20
2018-11-04T06:04:15.828Z,88.20
2018-11-04T06:05:19.204Z,88.20
2018-11-04T06:06:22.628Z,88.40
2018-11-04T06:07:26.009Z,88.20
2018-11-04T06:08:29.412Z,89.10
2018-11-04T06:09:32.774Z,88.50
2018-11-04T06:10:36.447Z,88.60
2018-11-04T06:11:40.083Z,88.60
2018-11-04T06:12:43.431Z,88.60
2018-11-04T06:13:46.835Z,88.60
2018-11-04T06:14:50.194Z,88.80
2018-11-04T06:15:53.685Z,88.70
2018-11-04T06:16:57.086Z,88.80
2018-11-04T06:18:00.485Z,88.80
2018-11-04T06:19:04.003Z,88.80
2018-11-04T06:20:08.901Z,88.90
2018-11-04T06:21:12.284Z,88.90
2018-11-04T06:22:15.667Z,88.80
2018-11-04T06:23:19.230Z,88.80
2018-11-04T06:24:22.603Z,88.90
2018-11-04T06:25:25.989Z,88.90
2018-11-04T06:26:29.402Z,89.00
2018-11-04T06:27:32.817Z,88.90
2018-11-04T06:28:36.259Z,89.10
2018-11-04T06:29:39.747Z,89.20
2018-11-04T06:30:43.235Z,89.20
2018-11-04T06:31:46.607Z,89.30
2018-11-04T06:32:50.009Z,90.00
2018-11-04T06:33:53.630Z,89.30
2018-11-04T06:34:57.086Z,89.30
2018-11-04T06:36:00.479Z,89.30
2018-11-04T06:37:03.867Z,89.50
2018-11-04T06:38:07.334Z,89.60
2018-11-04T06:39:10.735Z,89.60
2018-11-04T06:40:14.118Z,89.50
2018-11-04T06:41:17.567Z,89.50
2018-11-04T06:42:20.905Z,89.50
2018-11-04T06:43:24.289Z,89.50
2018-11-04T06:44:27.735Z,90.10
2018-11-04T06:45:31.128Z,89.60
2018-11-04T06:46:34.566Z,89.60
2018-11-04T06:47:43.389Z,89.60
2018-11-04T06:48:46.860Z,89.60
2018-11-04T06:49:50.411Z,89.60
2018-11-04T06:50:53.802Z,89.60
2018-11-04T06:51:57.299Z,89.60
2018-11-04T06:53:00.782Z,89.60
2018-11-04T06:54:04.291Z,89.40
2018-11-04T06:55:08.501Z,89.10
2018-11-04T06:56:11.870Z,89.20
2018-11-04T06:57:15.264Z,89.20
2018-11-04T06:58:18.641Z,89.30
2018-11-04T06:59:22.108Z,89.30
2018-11-04T07:00:25.500Z,89.40
2018-11-04T07:01:28.888Z,89.50
2018-11-04T07:02:32.264Z,89.40
2018-11-04T07:03:35.691Z,89.50
2018-11-04T07:04:39.080Z,89.60
2018-11-04T07:05:42.449Z,89.70
2018-11-04T07:06:45.857Z,89.60
2018-11-04T07:07:49.238Z,89.80
2018-11-04T07:08:52.796Z,89.80
2018-11-04T07:09:56.708Z,89.80
2018-11-04T07:11:00.085Z,89.80
2018-11-04T07:12:03.500Z,89.80
2018-11-04T07:13:06.902Z,89.70
2018-11-04T07:14:10.386Z,89.70
2018-11-04T07:15:13.753Z,89.70
2018-11-04T07:16:17.213Z,89.60
2018-11-04T07:17:20.687Z,89.50
2018-11-04T07:18:24.105Z,89.50
2018-11-04T07:19:27.563Z,89.40
2018-11-04T07:20:31.183Z,90.10
2018-11-04T07:21:34.791Z,89.50
2018-11-04T07:22:38.680Z,89.50
2018-11-04T07:23:42.138Z,89.40
2018-11-04T07:24:45.554Z,89.40
2018-11-04T07:25:48.975Z,89.30
2018-11-04T07:26:52.329Z,89.30
2018-11-04T07:27:55.883Z,89.30
2018-11-04T07:28:59.300Z,89.10
2018-11-04T07:30:02.814Z,89.20
2018-11-04T07:31:06.279Z,89.10
2018-11-04T07:32:09.762Z,89.00
2018-11-04T07:33:13.116Z,89.00
2018-11-04T07:34:16.698Z,88.90
2018-11-04T07:35:20.060Z,88.80
2018-11-04T07:36:23.466Z,88.70
2018-11-04T07:37:27.125Z,88.70
2018-11-04T07:38:30.510Z,88.70
2018-11-04T07:39:33.900Z,88.90
2018-11-04T07:40:37.331Z,88.30
2018-11-04T07:41:40.934Z,88.00
2018-11-04T07:42:44.328Z,88.00
2018-11-04T07:43:47.954Z,87.50
2018-11-04T07:44:51.337Z,87.20
2018-11-04T07:45:55.064Z,87.00
2018-11-04T07:46:58.820Z,86.20
2018-11-04T07:48:02.257Z,85.50
2018-11-04T07:49:06.150Z,85.50
2018-11-04T07:50:12.125Z,84.40
2018-11-04T07:51:15.573Z,84.30
2018-11-04T07:52:19.131Z,83.90
2018-11-04T07:53:22.708Z,83.50
2018-11-04T07:54:26.242Z,83.00
2018-11-04T07:55:29.732Z,82.70
2018-11-04T07:56:33.322Z,82.40
2018-11-04T07:57:38.789Z,82.30
2018-11-04T07:58:42.300Z,82.40
2018-11-04T07:59:45.732Z,82.10
2018-11-04T08:00:49.283Z,81.70
2018-11-04T08:01:52.767Z,81.60
2018-11-04T08:02:57.003Z,81.00
2018-11-04T08:04:00.438Z,80.60
2018-11-04T08:05:03.955Z,80.20
2018-11-04T08:06:07.377Z,79.90
2018-11-04T08:07:10.816Z,79.60
2018-11-04T08:08:14.209Z,79.70
2018-11-04T08:09:17.645Z,79.10
2018-11-04T08:10:21.143Z,79.10
2018-11-04T08:11:24.683Z,78.70
2018-11-04T08:12:28.074Z,78.40
2018-11-04T08:13:31.574Z,78.60
2018-11-04T08:14:35.152Z,77.60
2018-11-04T08:15:38.586Z,77.30
2018-11-04T08:16:42.101Z,77.50
2018-11-04T08:17:48.052Z,77.60
2018-11-04T08:18:51.428Z,77.70
2018-11-04T08:19:55.557Z,77.10
2018-11-04T08:20:59.128Z,77.40
2018-11-04T08:22:02.631Z,77.80
2018-11-04T08:23:06.062Z,77.10
2018-11-04T08:24:09.574Z,76.00
2018-11-04T08:25:12.960Z,76.00
2018-11-04T08:26:16.396Z,75.60
2018-11-04T08:27:19.936Z,74.70
2018-11-04T08:28:23.431Z,74.20
2018-11-04T08:29:26.961Z,73.60
2018-11-04T08:30:30.453Z,73.60
2018-11-04T08:31:34.012Z,73.90
2018-11-04T08:32:37.454Z,73.80
2018-11-04T08:33:42.658Z,74.00
2018-11-04T08:34:46.132Z,74.30
2018-11-04T08:35:49.650Z,74.20
2018-11-04T08:36:53.076Z,73.50
2018-11-04T08:37:56.465Z,73.80
2018-11-04T08:38:59.931Z,74.30
2018-11-04T08:40:03.639Z,74.40
2018-11-04T08:41:06.941Z,74.50
2018-11-04T08:42:10.343Z,74.60
2018-11-04T08:43:13.767Z,74.80
2018-11-04T08:44:17.162Z,74.60
2018-11-04T08:45:20.570Z,74.80
2018-11-04T08:46:24.049Z,75.00
2018-11-04T08:47:27.451Z,75.30
2018-11-04T08:48:31.065Z,75.30
2018-11-04T08:49:34.483Z,75.00
2018-11-04T08:50:38.029Z,75.00
2018-11-04T08:51:41.435Z,74.70
2018-11-04T08:52:44.846Z,75.30
2018-11-04T08:53:48.315Z,75.30
2018-11-04T08:54:51.727Z,75.00
2018-11-04T08:55:55.148Z,74.30
2018-11-04T08:56:58.578Z,73.50
2018-11-04T08:58:02.018Z,72.50
2018-11-04T08:59:05.442Z,72.80
2018-11-04T09:00:11.243Z,72.50
2018-11-04T09:01:14.578Z,71.60
2018-11-04T09:02:17.994Z,71.90
2018-11-04T09:03:21.414Z,71.50
2018-11-04T09:04:25.097Z,70.80
2018-11-04T09:05:28.903Z,70.50
2018-11-04T09:06:32.339Z,70.00
2018-11-04T09:07:35.761Z,69.70
2018-11-04T09:08:39.196Z,69.50
2018-11-04T09:09:42.603Z,68.50
2018-11-04T09:10:46.038Z,68.80
2018-11-04T09:11:49.560Z,69.00
2018-11-04T09:12:52.936Z,69.00
2018-11-04T09:13:56.334Z,68.90
2018-11-04T09:15:00.371Z,69.00
2018-11-04T09:16:03.806Z,69.60
2018-11-04T09:17:07.818Z,69.50
2018-11-04T09:18:11.212Z,68.80
2018-11-04T09:19:14.784Z,69.00
2018-11-04T09:20:18.416Z,69.50
2018-11-04T09:21:22.065Z,68.70
2018-11-04T09:22:25.634Z,68.80
2018-11-04T09:23:29.242Z,68.40
2018-11-04T09:24:32.694Z,68.00
2018-11-04T09:25:36.176Z,67.60
2018-11-04T09:26:40.031Z,67.10
2018-11-04T09:27:43.504Z,66.20
2018-11-04T09:28:46.926Z,66.60
2018-11-04T09:29:50.333Z,66.10
2018-11-04T09:30:53.863Z,65.90
2018-11-04T09:31:57.297Z,65.70
2018-11-04T09:33:00.830Z,65.10
2018-11-04T09:34:04.511Z,64.20
2018-11-04T09:35:09.036Z,64.50
2018-11-04T09:36:12.434Z,64.70
2018-11-04T09:37:15.812Z,64.40
2018-11-04T09:38:19.348Z,64.30
2018-11-04T09:39:22.869Z,64.20
2018-11-04T09:40:26.313Z,64.10
2018-11-04T09:41:29.713Z,64.90
2018-11-04T09:42:33.099Z,65.30
2018-11-04T09:43:36.595Z,65.70
2018-11-04T09:44:40.089Z,63.90
2018-11-04T09:45:43.591Z,65.00
2018-11-04T09:46:46.989Z,64.50
2018-11-04T09:47:50.467Z,64.60
2018-11-04T09:48:54.040Z,65.10
2018-11-04T09:49:57.673Z,64.10
2018-11-04T09:51:01.120Z,63.90
2018-11-04T09:52:04.682Z,64.20
2018-11-04T09:53:08.096Z,64.60
2018-11-04T09:54:11.692Z,64.60
2018-11-04T09:55:15.170Z,63.80
2018-11-04T09:56:18.661Z,63.70
2018-11-04T09:57:22.130Z,63.90
2018-11-04T09:58:25.654Z,64.30
2018-11-04T09:59:37.297Z,64.70
2018-11-04T10:00:41.265Z,65.30
2018-11-04T10:01:44.680Z,64.70
2018-11-04T10:02:48.318Z,65.00
2018-11-04T10:03:52.063Z,64.20
2018-11-04T10:04:55.598Z,64.10
2018-11-04T10:05:59.192Z,64.60
2018-11-04T10:07:02.662Z,64.60
2018-11-04T10:08:06.270Z,64.30
2018-11-04T10:09:10.604Z,64.30
2018-11-04T10:10:15.088Z,64.30
2018-11-04T10:11:18.551Z,64.20
2018-11-04T10:12:21.960Z,64.70
2018-11-04T10:13:25.607Z,64.90
2018-11-04T10:14:29.060Z,64.60
2018-11-04T10:15:32.487Z,65.00
2018-11-04T10:16:36.778Z,65.10
2018-11-04T10:17:40.958Z,65.00
2018-11-04T10:18:44.515Z,65.20
2018-11-04T10:19:48.325Z,64.80
2018-11-04T10:20:52.056Z,64.90
2018-11-04T10:21:55.154Z,65.20
2018-11-04T10:22:58.881Z,65.20
2018-11-04T10:24:07.162Z,65.60
2018-11-04T10:25:11.798Z,64.40
2018-11-04T10:26:15.279Z,64.10
2018-11-04T10:27:18.853Z,63.90
2018-11-04T10:28:22.328Z,63.40
2018-11-04T10:29:25.867Z,63.90
2018-11-04T10:30:29.520Z,63.00
2018-11-04T10:31:32.904Z,63.90
2018-11-04T10:32:36.922Z,63.40
2018-11-04T10:33:40.489Z,64.00
2018-11-04T10:34:44.008Z,64.30
2018-11-04T10:35:47.422Z,64.10
2018-11-04T10:36:50.881Z,63.70
2018-11-04T10:37:54.300Z,64.20
2018-11-04T10:38:57.693Z,64.30
2018-11-04T10:40:01.181Z,64.50
2018-11-04T10:41:04.820Z,64.70
2018-11-04T10:42:08.509Z,64.70
2018-11-04T10:43:12.305Z,64.40
2018-11-04T10:44:15.740Z,64.80
2018-11-04T10:45:19.226Z,65.10
2018-11-04T10:46:22.760Z,64.80
2018-11-04T10:47:26.303Z,64.50
2018-11-04T10:48:29.833Z,64.50
2018-11-04T10:49:33.289Z,64.50
2018-11-04T10:50:36.664Z,64.50
2018-11-04T10:51:40.064Z,63.60
2018-11-04T10:52:43.675Z,63.40
2018-11-04T10:53:47.310Z,62.90
2018-11-04T10:54:50.805Z,62.80
2018-11-04T10:55:54.472Z,63.40
2018-11-04T10:56:57.912Z,64.00
2018-11-04T10:58:01.309Z,64.50
2018-11-04T10:59:04.701Z,65.40
2018-11-04T11:00:14.910Z,65.60
2018-11-04T11:01:18.365Z,65.50
2018-11-04T11:02:21.816Z,66.00
2018-11-04T11:03:25.210Z,66.40
2018-11-04T11:04:28.670Z,66.60
2018-11-04T11:05:32.082Z,65.80
2018-11-04T11:06:35.610Z,65.80
2018-11-04T11:07:39.385Z,66.70
2018-11-04T11:08:42.863Z,65.70
2018-11-04T11:09:46.450Z,65.10
2018-11-04T11:10:49.975Z,65.20
2018-11-04T11:11:54.019Z,65.80
2018-11-04T11:12:57.575Z,66.50
2018-11-04T11:14:01.042Z,66.90
2018-11-04T11:15:05.383Z,67.50
2018-11-04T11:16:08.988Z,67.60
2018-11-04T11:17:12.409Z,67.40
2018-11-04T11:18:15.933Z,66.70
2018-11-04T11:19:19.533Z,66.60
2018-11-04T11:20:22.974Z,66.90
2018-11-04T11:21:26.402Z,67.10
2018-11-04T11:22:29.832Z,67.30
2018-11-04T11:23:33.365Z,67.10
2018-11-04T11:24:36.750Z,67.10
2018-11-04T11:25:40.131Z,67.50
2018-11-04T11:26:43.529Z,67.60
2018-11-04T11:27:47.089Z,68.10
2018-11-04T11:28:50.502Z,66.90
2018-11-04T11:29:55.206Z,66.70
2018-11-04T11:30:58.590Z,66.20
2018-11-04T11:32:02.062Z,66.20
2018-11-04T11:33:05.679Z,66.20
2018-11-04T11:34:09.188Z,65.40
2018-11-04T11:35:12.615Z,65.40
2018-11-04T11:36:16.008Z,65.10
2018-11-04T11:37:19.524Z,65.70
2018-11-04T11:38:23.118Z,65.20
2018-11-04T11:39:27.013Z,65.10
2018-11-04T11:40:30.657Z,65.20
2018-11-04T11:41:34.066Z,65.80
2018-11-04T11:42:38.010Z,66.00
2018-11-04T11:43:41.405Z,65.80
2018-11-04T11:44:44.830Z,65.60
2018-11-04T11:45:48.910Z,65.80
2018-11-04T11:46:52.548Z,66.00
2018-11-04T11:47:56.012Z,65.90
2018-11-04T11:48:59.470Z,66.30
2018-11-04T11:50:02.905Z,66.40
2018-11-04T11:51:06.370Z,66.20
2018-11-04T11:52:09.757Z,66.40
2018-11-04T11:53:13.251Z,66.70
2018-11-04T11:54:16.724Z,67.00
2018-11-04T11:55:20.342Z,66.70
2018-11-04T11:56:27.608Z,66.90
2018-11-04T11:57:34.611Z,67.70
2018-11-04T11:58:43.294Z,67.10
2018-11-04T11:59:46.688Z,66.90
2018-11-04T12:00:50.134Z,66.90
2018-11-04T12:01:53.550Z,67.00
2018-11-04T12:02:57.036Z,66.50
2018-11-04T12:04:00.434Z,66.70
2018-11-04T12:05:03.893Z,66.70
2018-11-04T12:06:07.316Z,66.80
2018-11-04T12:07:10.735Z,66.70
2018-11-04T12:08:14.277Z,66.90
2018-11-04T12:09:17.938Z,67.10
2018-11-04T12:10:21.364Z,66.70
2018-11-04T12:11:24.968Z,66.70
2018-11-04T12:12:28.488Z,67.50
2018-11-04T12:13:32.023Z,66.90
2018-11-04T12:14:35.472Z,66.90
2018-11-04T12:15:38.872Z,66.90
2018-11-04T12:16:42.335Z,66.80
2018-11-04T12:17:45.949Z,66.70
2018-11-04T12:18:49.788Z,66.20
2018-11-04T12:19:53.980Z,66.30
2018-11-04T12:20:58.081Z,66.20
2018-11-04T12:22:01.629Z,66.20
2018-11-04T12:23:05.140Z,66.50
2018-11-04T12:24:08.572Z,66.10
2018-11-04T12:25:13.269Z,66.40
2018-11-04T12:26:16.784Z,66.70
2018-11-04T12:27:20.222Z,66.70
2018-11-04T12:28:23.654Z,66.70
2018-11-04T12:29:27.169Z,66.90
2018-11-04T12:30:30.571Z,66.50
2018-11-04T12:31:33.986Z,66.60
2018-11-04T12:32:37.611Z,66.30
2018-11-04T12:33:41.057Z,66.40
2018-11-04T12:34:46.743Z,67.00
2018-11-04T12:35:50.156Z,66.70
2018-11-04T12:36:53.666Z,66.90
2018-11-04T12:37:57.044Z,66.60
2018-11-04T12:39:00.559Z,66.40
2018-11-04T12:40:04.553Z,66.00
2018-11-04T12:41:07.999Z,65.90
2018-11-04T12:42:11.728Z,65.70
2018-11-04T12:43:15.188Z,65.70
2018-11-04T12:44:18.664Z,65.60
2018-11-04T12:45:22.254Z,65.80
2018-11-04T12:46:25.824Z,66.20
2018-11-04T12:47:29.373Z,65.80
2018-11-04T12:48:32.815Z,66.00
2018-11-04T12:49:36.271Z,65.80
2018-11-04T12:50:39.941Z,65.80
2018-11-04T12:51:43.768Z,65.90
2018-11-04T12:52:47.205Z,65.60
2018-11-04T12:53:50.645Z,65.60
2018-11-04T12:54:54.235Z,65.80
2018-11-04T12:55:57.849Z,65.40
2018-11-04T12:57:01.383Z,65.20
2018-11-04T12:58:04.805Z,65.90
2018-11-04T12:59:08.643Z,65.40
2018-11-04T13:00:13.976Z,64.80
2018-11-04T13:01:17.415Z,65.10
2018-11-04T13:02:20.943Z,64.80
2018-11-04T13:03:24.536Z,64.90
2018-11-04T13:04:28.434Z,65.40
2018-11-04T13:05:31.912Z,65.40
2018-11-04T13:06:35.415Z,65.40
2018-11-04T13:07:39.717Z,65.50
2018-11-04T13:08:43.325Z,65.10
2018-11-04T13:09:46.733Z,65.00
2018-11-04T13:10:50.251Z,65.20
2018-11-04T13:11:53.669Z,65.30
2018-11-04T13:12:57.360Z,65.40
2018-11-04T13:14:00.760Z,65.40
2018-11-04T13:15:04.981Z,65.60
2018-11-04T13:16:08.418Z,65.70
2018-11-04T13:17:11.826Z,65.70
2018-11-04T13:18:15.255Z,65.80
2018-11-04T13:19:18.664Z,65.80
2018-11-04T13:20:22.144Z,65.90
2018-11-04T13:21:25.704Z,66.50
2018-11-04T13:22:29.113Z,65.70
2018-11-04T13:23:32.552Z,65.70
2018-11-04T13:24:36.146Z,66.00
2018-11-04T13:25:40.307Z,66.00
2018-11-04T13:26:43.765Z,65.90
2018-11-04T13:27:47.306Z,66.50
2018-11-04T13:28:50.716Z,66.70
2018-11-04T13:29:54.137Z,67.10
2018-11-04T13:30:57.556Z,67.30
2018-11-04T13:32:01.030Z,67.70
2018-11-04T13:33:04.515Z,67.60
2018-11-04T13:34:07.952Z,67.60
2018-11-04T13:35:11.377Z,68.00
2018-11-04T13:36:14.792Z,67.80
2018-11-04T13:37:18.181Z,67.60
2018-11-04T13:38:21.562Z,67.90
2018-11-04T13:39:25.086Z,68.60